Terminal Aerodrome Forecast
Issued by NWS

Home | Current Version | Previous Version | Text Only | Print | Product List | Glossary On
Versions: 1 2 3 4 5 6 7 8 9 10 11 12 13 14 15 16 17 18 19 20 21 22 23 24 25 26 27 28 29 30 31 32 33 34 35 36 37 38 39 40 41 42 43 44 45 46 47 48 49 50
000
FTUS41 KCTP 010606 RRA
TAFJST
TAF
KJST 010606Z 0106/0206 16010KT P6SM BKN200
     FM011500 20015G20KT P6SM SCT050
     FM012000 18015G25KT 3SM TSRA OVC025CB
     FM012300 24012G20KT P6SM BKN035=

USA.gov is the U.S. government's official web portal to all federal, state and local government web resources and services.